createdAt,value
2022-09-07T00:00:52.249Z,14.10
2022-09-07T00:05:55.293Z,14.16
2022-09-07T00:11:00.505Z,14.24
2022-09-07T00:16:08.137Z,14.13
2022-09-07T00:21:12.662Z,13.78
2022-09-07T00:26:18.349Z,13.76
2022-09-07T00:31:24.503Z,13.86
2022-09-07T00:36:27.980Z,13.91
2022-09-07T00:41:31.049Z,13.84
2022-09-07T00:46:36.806Z,13.86
2022-09-07T00:51:44.487Z,13.86
2022-09-07T00:56:52.234Z,13.88
2022-09-07T01:01:57.003Z,13.74
2022-09-07T01:07:00.621Z,13.73
2022-09-07T01:12:04.759Z,13.68
2022-09-07T01:17:18.010Z,13.64
2022-09-07T01:22:42.791Z,13.57
2022-09-07T01:28:13.421Z,13.53
2022-09-07T01:33:44.736Z,13.50
2022-09-07T01:38:52.352Z,13.59
2022-09-07T01:44:03.450Z,13.53
2022-09-07T01:49:12.430Z,13.24
2022-09-07T01:54:22.474Z,13.29
2022-09-07T01:59:31.749Z,13.33
2022-09-07T02:04:39.453Z,13.28
2022-09-07T02:09:48.496Z,13.30
2022-09-07T02:14:55.699Z,13.17
2022-09-07T02:20:05.920Z,13.24
2022-09-07T02:25:12.350Z,13.23
2022-09-07T02:30:17.652Z,13.16
2022-09-07T02:35:20.684Z,13.16
2022-09-07T02:40:23.637Z,13.20
2022-09-07T02:45:34.800Z,13.15
2022-09-07T02:50:51.086Z,13.01
2022-09-07T02:56:06.275Z,13.01
2022-09-07T03:01:18.043Z,13.11
2022-09-07T03:06:27.697Z,12.98
2022-09-07T03:11:31.066Z,12.68
2022-09-07T03:16:35.413Z,12.81
2022-09-07T03:21:38.522Z,12.87
2022-09-07T03:26:42.848Z,12.89
2022-09-07T03:31:47.537Z,12.88
2022-09-07T03:36:50.519Z,12.76
2022-09-07T03:41:53.493Z,12.73
2022-09-07T03:46:57.830Z,12.79
2022-09-07T03:52:00.848Z,12.69
2022-09-07T03:57:03.866Z,12.64
2022-09-07T04:02:08.314Z,11.82
2022-09-07T04:07:11.383Z,12.15
2022-09-07T04:12:14.401Z,12.20
2022-09-07T04:17:18.760Z,12.20
2022-09-07T04:22:21.747Z,12.22
2022-09-07T04:27:24.783Z,12.34
2022-09-07T04:32:29.131Z,12.53
2022-09-07T04:37:32.136Z,12.36
2022-09-07T04:42:35.205Z,12.57
2022-09-07T04:47:39.572Z,12.78
2022-09-07T04:52:42.553Z,12.89
2022-09-07T04:57:45.548Z,12.69
2022-09-07T05:02:49.930Z,12.98
2022-09-07T05:07:52.968Z,13.24
2022-09-07T05:12:55.956Z,13.26
2022-09-07T05:18:00.296Z,13.59
2022-09-07T05:23:03.313Z,13.44
2022-09-07T05:28:06.283Z,13.49
2022-09-07T05:33:10.643Z,13.47
2022-09-07T05:38:13.671Z,13.38
2022-09-07T05:43:16.749Z,13.35
2022-09-07T05:48:21.610Z,13.63
2022-09-07T05:53:24.768Z,13.91
2022-09-07T05:58:28.108Z,14.33
2022-09-07T06:03:32.548Z,14.33
2022-09-07T06:08:37.209Z,14.72
2022-09-07T06:13:40.517Z,15.90
2022-09-07T06:18:46.454Z,15.20
2022-09-07T06:23:50.727Z,15.43
2022-09-07T06:28:57.647Z,15.59
2022-09-07T06:34:02.487Z,16.09
2022-09-07T06:39:05.495Z,16.36
2022-09-07T06:44:08.651Z,16.47
2022-09-07T06:49:13.014Z,16.11
2022-09-07T06:59:39.507Z,17.61
2022-09-07T07:04:43.900Z,18.36
2022-09-07T07:09:46.892Z,18.81
2022-09-07T07:14:49.863Z,17.96
2022-09-07T07:19:54.322Z,17.67
2022-09-07T07:24:57.388Z,18.29
2022-09-07T07:30:00.373Z,18.91
2022-09-07T07:35:05.485Z,19.48
2022-09-07T07:40:14.524Z,19.06
2022-09-07T07:50:42.610Z,20.35
2022-09-07T07:55:45.678Z,21.33
2022-09-07T08:00:56.626Z,21.37
2022-09-07T08:06:08.009Z,21.42
2022-09-07T08:11:12.343Z,21.69
2022-09-07T08:16:15.388Z,21.97
2022-09-07T08:21:19.790Z,22.15
2022-09-07T08:26:22.781Z,22.63
2022-09-07T08:31:25.758Z,22.40
2022-09-07T08:36:31.798Z,22.66
2022-09-07T08:41:57.596Z,22.88
2022-09-07T08:47:06.956Z,23.17
2022-09-07T08:52:17.074Z,23.05
2022-09-07T08:57:27.547Z,23.52
2022-09-07T09:02:35.151Z,23.35
2022-09-07T09:07:49.257Z,23.32
2022-09-07T09:13:05.240Z,24.15
2022-09-07T09:18:25.841Z,23.82
2022-09-07T09:23:35.591Z,24.55
2022-09-07T09:28:40.048Z,24.06
2022-09-07T09:33:43.048Z,23.97
2022-09-07T09:38:47.365Z,24.11
2022-09-07T09:43:55.441Z,24.12
2022-09-07T09:49:00.673Z,23.98
2022-09-07T09:54:08.692Z,24.01
2022-09-07T10:04:45.609Z,24.01
2022-09-07T10:09:53.102Z,23.97
2022-09-07T10:14:57.536Z,23.93
2022-09-07T10:20:03.685Z,23.76
2022-09-07T10:25:32.275Z,23.70
2022-09-07T10:30:47.257Z,23.52
2022-09-07T10:35:54.935Z,23.61
2022-09-07T10:41:04.166Z,23.47
2022-09-07T10:51:57.978Z,24.02
2022-09-07T10:57:13.256Z,24.12
2022-09-07T11:02:22.194Z,24.54
2022-09-07T11:07:41.895Z,24.91
2022-09-07T11:12:47.083Z,24.92
2022-09-07T11:17:53.803Z,24.33
2022-09-07T11:23:07.969Z,24.31
2022-09-07T11:28:18.331Z,24.63
2022-09-07T11:33:26.523Z,24.69
2022-09-07T11:38:35.138Z,24.29
2022-09-07T11:43:44.636Z,24.85
2022-09-07T11:48:51.848Z,24.95
2022-09-07T11:53:58.244Z,25.67
2022-09-07T11:59:24.323Z,25.79
2022-09-07T12:04:54.159Z,26.10
2022-09-07T12:10:32.400Z,26.72
2022-09-07T12:15:49.285Z,26.71
2022-09-07T12:20:52.376Z,25.88
2022-09-07T12:26:33.591Z,25.12
2022-09-07T12:31:57.851Z,24.67
2022-09-07T12:37:03.724Z,24.18
2022-09-07T12:42:38.177Z,23.85
2022-09-07T12:47:43.249Z,23.81
2022-09-07T12:52:49.785Z,23.67
2022-09-07T12:58:00.269Z,23.43
2022-09-07T13:03:52.190Z,22.34
2022-09-07T13:09:05.839Z,22.44
2022-09-07T13:14:21.004Z,22.38
2022-09-07T13:19:57.315Z,21.77
2022-09-07T13:25:03.320Z,20.60
2022-09-07T13:30:24.130Z,21.44
2022-09-07T13:35:28.419Z,22.24
2022-09-07T13:40:35.657Z,22.73
2022-09-07T13:45:49.225Z,23.32
2022-09-07T13:51:00.180Z,23.18
2022-09-07T13:56:19.961Z,24.03
2022-09-07T14:01:25.550Z,24.13
2022-09-07T14:06:33.733Z,23.77
2022-09-07T14:11:43.609Z,23.17
2022-09-07T14:16:49.953Z,23.27
2022-09-07T14:21:58.102Z,23.43
2022-09-07T14:27:03.160Z,23.46
2022-09-07T14:32:15.857Z,23.40
2022-09-07T14:37:21.414Z,23.37
2022-09-07T14:42:25.964Z,23.49
2022-09-07T14:47:30.621Z,23.65
2022-09-07T14:52:42.374Z,23.88
2022-09-07T14:57:48.372Z,23.83
2022-09-07T15:02:51.308Z,24.16
2022-09-07T15:07:56.856Z,24.34
2022-09-07T15:13:02.221Z,24.24
2022-09-07T15:18:09.049Z,24.19
2022-09-07T15:23:13.814Z,23.82
2022-09-07T15:33:49.255Z,24.08
2022-09-07T15:38:59.895Z,23.63
2022-09-07T15:44:05.143Z,24.05
2022-09-07T15:49:08.373Z,24.19
2022-09-07T15:54:13.071Z,23.86
2022-09-07T15:59:17.952Z,23.71
2022-09-07T16:04:23.850Z,23.83
2022-09-07T16:09:27.326Z,23.21
2022-09-07T16:14:35.075Z,23.15
2022-09-07T16:19:40.914Z,23.09
2022-09-07T16:24:44.324Z,22.69
2022-09-07T16:29:49.404Z,22.51
2022-09-07T16:34:52.376Z,22.29
2022-09-07T16:39:56.660Z,22.13
2022-09-07T16:50:23.958Z,21.91
2022-09-07T16:55:27.082Z,21.68
2022-09-07T17:00:33.903Z,21.43
2022-09-07T17:05:40.115Z,21.33
2022-09-07T17:10:43.140Z,20.83
2022-09-07T17:15:47.484Z,20.58
2022-09-07T17:20:56.671Z,20.77
2022-09-07T17:26:06.431Z,20.49
2022-09-07T17:32:23.765Z,20.45
2022-09-07T17:36:35.602Z,20.44
2022-09-07T17:41:38.577Z,20.28
2022-09-07T17:46:43.047Z,20.23
2022-09-07T17:51:46.610Z,20.13
2022-09-07T17:56:49.597Z,19.86
2022-09-07T18:01:54.715Z,19.95
2022-09-07T18:06:57.908Z,19.99
2022-09-07T18:12:00.857Z,19.93
2022-09-07T18:17:06.137Z,19.46
2022-09-07T18:22:09.406Z,19.76
2022-09-07T18:27:12.331Z,19.65
2022-09-07T18:32:17.685Z,19.69
2022-09-07T18:37:20.844Z,19.48
2022-09-07T18:42:23.820Z,19.55
2022-09-07T18:47:29.516Z,19.56
2022-09-07T18:57:55.911Z,19.14
2022-09-07T19:03:00.293Z,19.31
2022-09-07T19:08:03.913Z,19.31
2022-09-07T19:13:06.961Z,19.24
2022-09-07T19:18:11.869Z,19.10
2022-09-07T19:23:14.888Z,18.99
2022-09-07T19:28:19.128Z,18.82
2022-09-07T19:33:23.703Z,18.89
2022-09-07T19:38:26.677Z,18.31
2022-09-07T19:43:33.004Z,18.64
2022-09-07T19:48:38.162Z,18.62
2022-09-07T19:53:43.646Z,18.60
2022-09-07T19:58:48.492Z,18.59
2022-09-07T20:11:03.466Z,18.48
2022-09-07T20:16:08.530Z,18.31
2022-09-07T20:21:13.594Z,18.24
2022-09-07T20:26:20.334Z,18.17
2022-09-07T20:31:23.946Z,18.21
2022-09-07T20:36:26.861Z,18.20
2022-09-07T20:41:34.009Z,18.03
2022-09-07T20:46:37.336Z,17.82
2022-09-07T20:51:41.007Z,17.75
2022-09-07T20:56:45.289Z,17.79
2022-09-07T21:01:48.865Z,17.54
2022-09-07T21:06:51.774Z,17.62
2022-09-07T21:11:57.239Z,17.66
2022-09-07T21:17:00.238Z,17.27
2022-09-07T21:22:03.182Z,17.16
2022-09-07T21:27:07.985Z,17.24
2022-09-07T21:32:10.922Z,17.23
2022-09-07T21:37:15.004Z,17.09
2022-09-07T21:42:19.332Z,17.07
2022-09-07T21:47:22.405Z,17.16
2022-09-07T21:52:25.328Z,17.10
2022-09-07T21:57:29.647Z,17.03
2022-09-07T22:02:32.542Z,16.97
2022-09-07T22:07:35.602Z,16.99
2022-09-07T22:12:39.884Z,16.79
2022-09-07T22:17:46.165Z,16.73
2022-09-07T22:22:49.393Z,16.60
2022-09-07T22:27:54.118Z,16.59
2022-09-07T22:32:57.080Z,16.54
2022-09-07T22:38:00.042Z,16.46
2022-09-07T22:43:04.301Z,16.54
2022-09-07T22:48:07.223Z,16.58
2022-09-07T22:53:10.155Z,16.30
2022-09-07T22:58:14.421Z,16.49
2022-09-07T23:03:17.416Z,16.52
2022-09-07T23:08:20.354Z,16.46
2022-09-07T23:13:24.628Z,16.38
2022-09-07T23:18:27.566Z,16.18
2022-09-07T23:23:44.914Z,16.30
2022-09-07T23:28:52.134Z,16.16
2022-09-07T23:33:55.144Z,15.78
2022-09-07T23:38:59.760Z,15.85
2022-09-07T23:44:04.816Z,15.96
2022-09-07T23:49:07.701Z,15.78
2022-09-07T23:54:10.650Z,15.97
2022-09-07T23:59:14.970Z,15.97
